Terminal Aerodrome Forecast
Issued by NWS Central Illinois

Home | Current Version | Previous Version | Text Only | Print | Product List | Glossary On
Versions: 1 2 3 4 5 6 7 8 9 10 11 12 13 14 15 16 17 18 19 20
840
FTUS43 KILX 230101 AAA
TAFSPI
TAF AMD
KSPI 230101Z 2301/2324 VRB04KT P6SM -RA OVC060
     FM230200 VRB05KT P6SM VCSH BKN060
     FM230500 18004KT P6SM VCSH OVC070
     FM231600 18005KT P6SM VCTS OVC030CB
     FM231800 21005KT 5SM -SHRA VCTS OVC020CB
     FM232100 23005KT P6SM -SHRA OVC035=

USA.gov is the U.S. government's official web portal to all federal, state and local government web resources and services.